sensor_id;sensor_type;location;lat;lon;timestamp;pressure;altitude;pressure_sealevel;temperature;humidity
85268;BME280;75677;52.380;4.876;2024-03-23T00:54:49;101130.25;;;19.24;40.94
85268;BME280;75677;52.380;4.876;2024-03-23T00:57:14;101127.44;;;19.24;41.10
85268;BME280;75677;52.380;4.876;2024-03-23T00:59:39;101121.03;;;19.23;40.46
85268;BME280;75677;52.380;4.876;2024-03-23T01:02:05;101120.69;;;19.21;40.96
85268;BME280;75677;52.380;4.876;2024-03-23T01:04:30;101115.47;;;19.20;41.01
85268;BME280;75677;52.380;4.876;2024-03-23T01:06:55;101106.66;;;19.21;40.74
85268;BME280;75677;52.380;4.876;2024-03-23T01:09:20;101108.66;;;19.21;41.03
85268;BME280;75677;52.380;4.876;2024-03-23T01:11:46;101099.84;;;19.22;41.02
85268;BME280;75677;52.380;4.876;2024-03-23T01:14:11;101093.44;;;19.22;40.63
85268;BME280;75677;52.380;4.876;2024-03-23T01:16:36;101090.25;;;19.20;40.69
85268;BME280;75677;52.380;4.876;2024-03-23T01:19:02;101089.03;;;19.21;40.95
85268;BME280;75677;52.380;4.876;2024-03-23T01:21:27;101082.66;;;19.20;40.79
85268;BME280;75677;52.380;4.876;2024-03-23T01:23:52;101079.03;;;19.20;40.89
85268;BME280;75677;52.380;4.876;2024-03-23T01:26:18;101092.66;;;19.21;41.00
85268;BME280;75677;52.380;4.876;2024-03-23T01:28:43;101069.94;;;19.12;40.71
85268;BME280;75677;52.380;4.876;2024-03-23T01:31:08;101085.44;;;19.20;40.91
85268;BME280;75677;52.380;4.876;2024-03-23T01:33:34;101080.63;;;19.21;40.54
85268;BME280;75677;52.380;4.876;2024-03-23T01:35:59;101082.66;;;19.20;40.55
85268;BME280;75677;52.380;4.876;2024-03-23T01:38:24;101068.63;;;19.20;40.71
85268;BME280;75677;52.380;4.876;2024-03-23T01:40:56;101061.81;;;19.21;40.49
85268;BME280;75677;52.380;4.876;2024-03-23T01:43:22;101058.22;;;19.21;40.85
85268;BME280;75677;52.380;4.876;2024-03-23T01:45:47;101061.44;;;19.19;40.76
85268;BME280;75677;52.380;4.876;2024-03-23T01:48:12;101063.81;;;19.21;40.44
85268;BME280;75677;52.380;4.876;2024-03-23T01:50:38;101061.88;;;19.18;40.72
85268;BME280;75677;52.380;4.876;2024-03-23T01:53:05;101057.84;;;19.19;40.48
85268;BME280;75677;52.380;4.876;2024-03-23T01:55:32;101053.88;;;19.16;40.74
85268;BME280;75677;52.380;4.876;2024-03-23T01:57:58;101053.88;;;19.16;40.36
85268;BME280;75677;52.380;4.876;2024-03-23T02:00:24;101052.69;;;19.14;40.24
85268;BME280;75677;52.380;4.876;2024-03-23T02:02:49;101055.91;;;19.16;40.38
85268;BME280;75677;52.380;4.876;2024-03-23T02:05:14;101060.25;;;19.17;40.20
85268;BME280;75677;52.380;4.876;2024-03-23T02:07:41;101051.84;;;19.17;40.27
85268;BME280;75677;52.380;4.876;2024-03-23T02:10:07;101045.09;;;19.14;40.08
85268;BME280;75677;52.380;4.876;2024-03-23T02:12:33;101051.09;;;19.13;40.15
85268;BME280;75677;52.380;4.876;2024-03-23T02:14:59;101045.50;;;19.13;40.08
85268;BME280;75677;52.380;4.876;2024-03-23T02:17:25;101043.50;;;19.13;40.15
85268;BME280;75677;52.380;4.876;2024-03-23T02:19:50;101047.16;;;19.10;40.00
85268;BME280;75677;52.380;4.876;2024-03-23T02:22:16;101038.31;;;19.12;40.09
85268;BME280;75677;52.380;4.876;2024-03-23T02:24:42;101042.69;;;19.13;39.87
85268;BME280;75677;52.380;4.876;2024-03-23T02:27:07;101014.94;;;18.95;39.63
85268;BME280;75677;52.380;4.876;2024-03-23T02:29:33;101030.34;;;19.10;39.61
85268;BME280;75677;52.380;4.876;2024-03-23T02:31:58;101035.94;;;19.10;39.88
85268;BME280;75677;52.380;4.876;2024-03-23T02:34:24;101035.13;;;19.09;39.59
85268;BME280;75677;52.380;4.876;2024-03-23T02:36:49;101025.16;;;19.08;39.19
85268;BME280;75677;52.380;4.876;2024-03-23T02:39:15;101015.97;;;19.08;39.42
85268;BME280;75677;52.380;4.876;2024-03-23T02:41:40;101010.34;;;19.08;39.64
85268;BME280;75677;52.380;4.876;2024-03-23T02:44:05;101012.34;;;19.07;39.40
85268;BME280;75677;52.380;4.876;2024-03-23T02:46:30;101011.56;;;19.07;39.63
85268;BME280;75677;52.380;4.876;2024-03-23T02:48:56;101002.34;;;19.06;39.32
85268;BME280;75677;52.380;4.876;2024-03-23T02:51:21;101004.78;;;19.04;39.48
85268;BME280;75677;52.380;4.876;2024-03-23T02:53:47;101009.97;;;19.06;39.06
85268;BME280;75677;52.380;4.876;2024-03-23T02:56:12;101008.75;;;19.07;39.04
85268;BME280;75677;52.380;4.876;2024-03-23T02:58:41;101002.84;;;19.01;39.17
85268;BME280;75677;52.380;4.876;2024-03-23T03:01:06;101002.78;;;19.05;39.33
85268;BME280;75677;52.380;4.876;2024-03-23T03:03:32;101005.59;;;19.05;39.14
85268;BME280;75677;52.380;4.876;2024-03-23T03:05:57;100995.94;;;19.06;39.09
85268;BME280;75677;52.380;4.876;2024-03-23T03:08:23;100988.03;;;19.01;39.09
85268;BME280;75677;52.380;4.876;2024-03-23T03:10:48;100997.59;;;19.03;39.05
85268;BME280;75677;52.380;4.876;2024-03-23T03:13:14;100990.78;;;19.04;39.44
85268;BME280;75677;52.380;4.876;2024-03-23T03:15:41;100992.38;;;19.05;38.99
85268;BME280;75677;52.380;4.876;2024-03-23T03:18:06;100994.38;;;19.05;38.97
85268;BME280;75677;52.380;4.876;2024-03-23T03:20:31;100958.56;;;18.89;38.76
85268;BME280;75677;52.380;4.876;2024-03-23T03:22:56;100982.38;;;19.04;38.73
85268;BME280;75677;52.380;4.876;2024-03-23T03:25:22;100978.78;;;19.04;38.74
85268;BME280;75677;52.380;4.876;2024-03-23T03:27:47;100971.28;;;18.97;38.59
85268;BME280;75677;52.380;4.876;2024-03-23T03:30:13;100982.00;;;19.02;38.74
85268;BME280;75677;52.380;4.876;2024-03-23T03:32:38;100979.19;;;19.02;38.66
85268;BME280;75677;52.380;4.876;2024-03-23T03:35:04;100972.03;;;19.01;38.78
85268;BME280;75677;52.380;4.876;2024-03-23T03:37:29;100969.22;;;19.01;38.58
85268;BME280;75677;52.380;4.876;2024-03-23T03:39:55;100971.22;;;19.01;38.46
85268;BME280;75677;52.380;4.876;2024-03-23T03:42:20;100971.22;;;19.01;38.66
85268;BME280;75677;52.380;4.876;2024-03-23T03:44:45;100977.63;;;19.01;38.49
85268;BME280;75677;52.380;4.876;2024-03-23T03:47:11;100972.03;;;19.01;38.33
85268;BME280;75677;52.380;4.876;2024-03-23T03:49:36;100976.03;;;19.00;38.55
85268;BME280;75677;52.380;4.876;2024-03-23T03:52:01;100967.25;;;18.98;38.23
85268;BME280;75677;52.380;4.876;2024-03-23T03:54:27;100958.84;;;18.98;38.33
85268;BME280;75677;52.380;4.876;2024-03-23T03:56:52;100963.22;;;18.99;38.45
85268;BME280;75677;52.380;4.876;2024-03-23T03:59:18;100956.84;;;18.99;38.59
85268;BME280;75677;52.380;4.876;2024-03-23T04:01:43;100954.06;;;18.99;38.55
85268;BME280;75677;52.380;4.876;2024-03-23T04:04:08;100944.50;;;18.93;38.26
85268;BME280;75677;52.380;4.876;2024-03-23T04:06:34;100959.69;;;18.95;38.28
85268;BME280;75677;52.380;4.876;2024-03-23T04:08:59;100957.25;;;18.97;38.12
85268;BME280;75677;52.380;4.876;2024-03-23T04:11:25;100955.66;;;18.96;38.43
85268;BME280;75677;52.380;4.876;2024-03-23T04:13:50;100950.84;;;18.97;38.52
85268;BME280;75677;52.380;4.876;2024-03-23T04:16:32;100961.25;;;18.96;38.02
85268;BME280;75677;52.380;4.876;2024-03-23T04:18:57;100948.84;;;18.97;38.27
85268;BME280;75677;52.380;4.876;2024-03-23T04:21:23;100952.06;;;18.96;38.38
85268;BME280;75677;52.380;4.876;2024-03-23T04:23:48;100954.09;;;18.95;38.14
85268;BME280;75677;52.380;4.876;2024-03-23T04:26:14;100929.81;;;18.85;38.27
85268;BME280;75677;52.380;4.876;2024-03-23T04:28:40;100951.28;;;18.95;38.33
85268;BME280;75677;52.380;4.876;2024-03-23T04:31:05;100942.88;;;18.95;38.36
85268;BME280;75677;52.380;4.876;2024-03-23T04:33:31;100939.28;;;18.95;38.31
85268;BME280;75677;52.380;4.876;2024-03-23T04:35:56;100934.50;;;18.95;38.54
85268;BME280;75677;52.380;4.876;2024-03-23T04:38:22;100939.28;;;18.95;38.74
85268;BME280;75677;52.380;4.876;2024-03-23T04:40:59;100939.66;;;18.97;38.50
85268;BME280;75677;52.380;4.876;2024-03-23T04:43:26;100929.28;;;18.94;38.25
85268;BME280;75677;52.380;4.876;2024-03-23T04:45:51;100932.91;;;18.94;38.32
85268;BME280;75677;52.380;4.876;2024-03-23T04:48:20;100934.50;;;18.95;38.05
85268;BME280;75677;52.380;4.876;2024-03-23T04:50:46;100909.47;;;18.81;38.25
85268;BME280;75677;52.380;4.876;2024-03-23T04:53:11;100939.28;;;18.95;38.11
85268;BME280;75677;52.380;4.876;2024-03-23T04:55:36;100941.28;;;18.94;37.88
85268;BME280;75677;52.380;4.876;2024-03-23T04:58:02;100939.28;;;18.95;38.04
85268;BME280;75677;52.380;4.876;2024-03-23T05:00:28;100941.72;;;18.93;38.19
85268;BME280;75677;52.380;4.876;2024-03-23T05:02:53;100932.91;;;18.94;38.00
85268;BME280;75677;52.380;4.876;2024-03-23T05:05:18;100940.50;;;18.94;38.06
85268;BME280;75677;52.380;4.876;2024-03-23T05:07:44;100926.59;;;18.87;38.01
85268;BME280;75677;52.380;4.876;2024-03-23T05:10:09;100934.59;;;18.88;38.13
85268;BME280;75677;52.380;4.876;2024-03-23T05:12:37;100938.13;;;18.92;38.02
85268;BME280;75677;52.380;4.876;2024-03-23T05:15:03;100936.53;;;18.91;37.89
85268;BME280;75677;52.380;4.876;2024-03-23T05:17:28;100929.72;;;18.92;37.91
85268;BME280;75677;52.380;4.876;2024-03-23T05:19:53;100931.78;;;18.88;37.87
85268;BME280;75677;52.380;4.876;2024-03-23T05:22:19;100935.75;;;18.91;37.93
85268;BME280;75677;52.380;4.876;2024-03-23T05:24:45;100941.75;;;18.89;38.23
85268;BME280;75677;52.380;4.876;2024-03-23T05:27:10;100936.16;;;18.89;38.07
85268;BME280;75677;52.380;4.876;2024-03-23T05:29:36;100938.59;;;18.87;38.13
85268;BME280;75677;52.380;4.876;2024-03-23T05:32:01;100939.75;;;18.90;37.95
85268;BME280;75677;52.380;4.876;2024-03-23T05:34:26;100935.78;;;18.87;37.97
85268;BME280;75677;52.380;4.876;2024-03-23T05:36:53;100939.78;;;18.86;38.04
85268;BME280;75677;52.380;4.876;2024-03-23T05:39:18;100933.00;;;18.87;38.11
85268;BME280;75677;52.380;4.876;2024-03-23T05:41:47;100934.19;;;18.86;38.12
85268;BME280;75677;52.380;4.876;2024-03-23T05:44:12;100934.19;;;18.86;37.89
85268;BME280;75677;52.380;4.876;2024-03-23T05:46:37;100926.22;;;18.85;37.99
85268;BME280;75677;52.380;4.876;2024-03-23T05:49:03;100921.78;;;18.87;37.78
85268;BME280;75677;52.380;4.876;2024-03-23T05:51:28;100926.59;;;18.87;38.22
85268;BME280;75677;52.380;4.876;2024-03-23T05:53:53;100925.38;;;18.88;37.80
85268;BME280;75677;52.380;4.876;2024-03-23T05:56:20;100929.81;;;18.85;37.96
85268;BME280;75677;52.380;4.876;2024-03-23T05:58:45;100924.59;;;18.87;37.97
85268;BME280;75677;52.380;4.876;2024-03-23T06:01:11;100862.25;;;18.49;38.10
85268;BME280;75677;52.380;4.876;2024-03-23T06:03:37;100923.38;;;18.88;37.77
85268;BME280;75677;52.380;4.876;2024-03-23T06:06:03;100920.94;;;18.90;38.09
85268;BME280;75677;52.380;4.876;2024-03-23T06:08:29;100924.94;;;18.89;37.85
85268;BME280;75677;52.380;4.876;2024-03-23T06:10:55;100917.78;;;18.88;37.85
85268;BME280;75677;52.380;4.876;2024-03-23T06:13:20;100925.78;;;18.86;37.93
85268;BME280;75677;52.380;4.876;2024-03-23T06:15:50;100925.78;;;18.86;37.84
85268;BME280;75677;52.380;4.876;2024-03-23T06:18:15;100913.97;;;18.75;37.97
85268;BME280;75677;52.380;4.876;2024-03-23T06:20:40;100921.88;;;18.80;37.74
85268;BME280;75677;52.380;4.876;2024-03-23T06:23:06;100912.72;;;18.76;38.04
85268;BME280;75677;52.380;4.876;2024-03-23T06:25:31;100921.00;;;18.87;37.77
85268;BME280;75677;52.380;4.876;2024-03-23T06:27:56;100929.38;;;18.87;37.60
85268;BME280;75677;52.380;4.876;2024-03-23T06:30:23;100927.38;;;18.87;37.93
85268;BME280;75677;52.380;4.876;2024-03-23T06:32:48;100925.38;;;18.88;37.99
85268;BME280;75677;52.380;4.876;2024-03-23T06:35:14;100931.00;;;18.88;38.00
85268;BME280;75677;52.380;4.876;2024-03-23T06:37:39;100930.53;;;18.89;37.82
85268;BME280;75677;52.380;4.876;2024-03-23T06:40:07;100923.38;;;18.88;37.74
85268;BME280;75677;52.380;4.876;2024-03-23T06:42:34;100920.19;;;18.86;38.04
85268;BME280;75677;52.380;4.876;2024-03-23T06:44:59;100915.78;;;18.89;38.04
85268;BME280;75677;52.380;4.876;2024-03-23T06:47:25;100918.56;;;18.89;37.78
85268;BME280;75677;52.380;4.876;2024-03-23T06:49:50;100929.78;;;18.89;37.71
85268;BME280;75677;52.380;4.876;2024-03-23T06:52:16;100919.34;;;18.89;38.02
85268;BME280;75677;52.380;4.876;2024-03-23T06:54:41;100921.78;;;18.87;38.06
85268;BME280;75677;52.380;4.876;2024-03-23T06:57:06;100929.78;;;18.89;37.82
85268;BME280;75677;52.380;4.876;2024-03-23T06:59:32;100910.69;;;18.80;37.74
85268;BME280;75677;52.380;4.876;2024-03-23T07:01:58;100924.53;;;18.91;37.65
85268;BME280;75677;52.380;4.876;2024-03-23T07:04:23;100924.94;;;18.89;37.98
85268;BME280;75677;52.380;4.876;2024-03-23T07:06:48;100931.34;;;18.90;37.90
85268;BME280;75677;52.380;4.876;2024-03-23T07:09:14;100926.13;;;18.92;37.69
85268;BME280;75677;52.380;4.876;2024-03-23T07:11:39;100926.50;;;18.94;37.84
85268;BME280;75677;52.380;4.876;2024-03-23T07:14:04;100924.03;;;18.96;38.00
85268;BME280;75677;52.380;4.876;2024-03-23T07:16:30;100916.44;;;18.96;37.86
85268;BME280;75677;52.380;4.876;2024-03-23T07:18:55;100932.03;;;18.97;37.73
85268;BME280;75677;52.380;4.876;2024-03-23T07:21:21;100922.09;;;18.93;37.67
85268;BME280;75677;52.380;4.876;2024-03-23T07:23:47;100934.00;;;19.00;38.10
85268;BME280;75677;52.380;4.876;2024-03-23T07:26:12;100931.56;;;19.02;37.85
85268;BME280;75677;52.380;4.876;2024-03-23T07:28:38;100928.00;;;19.02;38.09
85268;BME280;75677;52.380;4.876;2024-03-23T07:33:36;100922.75;;;19.04;37.96
85268;BME280;75677;52.380;4.876;2024-03-23T07:36:02;100917.56;;;19.02;37.87
85268;BME280;75677;52.380;4.876;2024-03-23T07:38:28;100920.34;;;19.02;38.04
85268;BME280;75677;52.380;4.876;2024-03-23T07:41:11;100931.94;;;19.04;37.82
85268;BME280;75677;52.380;4.876;2024-03-23T07:43:40;100932.31;;;19.06;38.13
85268;BME280;75677;52.380;4.876;2024-03-23T07:46:05;100939.50;;;19.07;38.25
85268;BME280;75677;52.380;4.876;2024-03-23T07:48:31;100914.88;;;18.95;38.28
85268;BME280;75677;52.380;4.876;2024-03-23T07:51:03;100919.41;;;19.13;38.09
85268;BME280;75677;52.380;4.876;2024-03-23T07:53:33;100913.03;;;19.12;38.41
85268;BME280;75677;52.380;4.876;2024-03-23T07:56:00;100924.53;;;19.18;38.07
85268;BME280;75677;52.380;4.876;2024-03-23T07:58:26;100916.06;;;19.21;38.22
85268;BME280;75677;52.380;4.876;2024-03-23T08:00:52;100922.44;;;19.25;38.07
85268;BME280;75677;52.380;4.876;2024-03-23T08:03:18;100920.78;;;19.28;38.09
85268;BME280;75677;52.380;4.876;2024-03-23T08:05:43;100906.03;;;19.24;38.11
85268;BME280;75677;52.380;4.876;2024-03-23T08:08:08;100918.38;;;19.26;38.04
85268;BME280;75677;52.380;4.876;2024-03-23T08:10:34;100918.78;;;19.28;38.02
85268;BME280;75677;52.380;4.876;2024-03-23T08:12:59;100919.88;;;19.34;38.57
85268;BME280;75677;52.380;4.876;2024-03-23T08:15:25;100918.22;;;19.37;38.64
85268;BME280;75677;52.380;4.876;2024-03-23T08:17:50;100915.38;;;19.40;38.27
85268;BME280;75677;52.380;4.876;2024-03-23T08:20:16;100901.84;;;19.35;38.47
85268;BME280;75677;52.380;4.876;2024-03-23T08:22:41;100909.72;;;19.44;38.26
85268;BME280;75677;52.380;4.876;2024-03-23T08:25:06;100911.72;;;19.43;38.32
85268;BME280;75677;52.380;4.876;2024-03-23T08:27:32;100897.75;;;19.40;38.43
85268;BME280;75677;52.380;4.876;2024-03-23T08:29:58;100908.13;;;19.43;38.16
85268;BME280;75677;52.380;4.876;2024-03-23T08:32:23;100912.53;;;19.44;37.71
85268;BME280;75677;52.380;4.876;2024-03-23T08:34:48;100904.91;;;19.44;37.82
85268;BME280;75677;52.380;4.876;2024-03-23T08:37:14;100905.78;;;19.41;37.35
85268;BME280;75677;52.380;4.876;2024-03-23T08:39:39;100912.94;;;19.42;37.40
85268;BME280;75677;52.380;4.876;2024-03-23T08:42:05;100920.09;;;19.47;37.16
85268;BME280;75677;52.380;4.876;2024-03-23T08:44:30;100911.69;;;19.47;37.49
85268;BME280;75677;52.380;4.876;2024-03-23T08:46:56;100894.56;;;19.41;37.53
85268;BME280;75677;52.380;4.876;2024-03-23T08:49:21;100916.00;;;19.51;37.61
85268;BME280;75677;52.380;4.876;2024-03-23T08:51:47;100913.56;;;19.53;37.62
85268;BME280;75677;52.380;4.876;2024-03-23T08:54:12;100911.13;;;19.55;37.83
85268;BME280;75677;52.380;4.876;2024-03-23T08:56:37;100904.34;;;19.53;37.52
85268;BME280;75677;52.380;4.876;2024-03-23T08:59:03;100919.47;;;19.59;37.51
85268;BME280;75677;52.380;4.876;2024-03-23T09:01:28;100907.03;;;19.60;37.35
85268;BME280;75677;52.380;4.876;2024-03-23T09:03:53;100903.56;;;19.52;37.06
85268;BME280;75677;52.380;4.876;2024-03-23T09:06:19;100920.31;;;19.56;37.22
85268;BME280;75677;52.380;4.876;2024-03-23T09:08:44;100916.81;;;19.52;37.00
85268;BME280;75677;52.380;4.876;2024-03-23T09:11:11;100923.13;;;19.56;37.07
85268;BME280;75677;52.380;4.876;2024-03-23T09:13:37;100909.56;;;19.54;37.08
85268;BME280;75677;52.380;4.876;2024-03-23T09:16:02;100905.09;;;19.57;36.78
85268;BME280;75677;52.380;4.876;2024-03-23T09:18:32;100929.13;;;19.58;36.86
85268;BME280;75677;52.380;4.876;2024-03-23T09:20:57;100921.97;;;19.53;36.73
85268;BME280;75677;52.380;4.876;2024-03-23T09:23:23;100910.34;;;19.55;36.83
85268;BME280;75677;52.380;4.876;2024-03-23T09:25:48;100894.13;;;19.39;36.70
85268;BME280;75677;52.380;4.876;2024-03-23T09:28:13;100911.97;;;19.52;36.61
85268;BME280;75677;52.380;4.876;2024-03-23T09:30:39;100913.91;;;19.55;36.71
85268;BME280;75677;52.380;4.876;2024-03-23T09:33:08;100909.13;;;19.56;36.69
85268;BME280;75677;52.380;4.876;2024-03-23T09:35:37;100923.94;;;19.56;36.50
85268;BME280;75677;52.380;4.876;2024-03-23T09:38:02;100904.69;;;19.58;36.67
85268;BME280;75677;52.380;4.876;2024-03-23T09:40:28;100903.88;;;19.58;36.46
85268;BME280;75677;52.380;4.876;2024-03-23T09:42:54;100906.25;;;19.59;36.78
85268;BME280;75677;52.380;4.876;2024-03-23T09:45:21;100901.44;;;19.60;36.55
85268;BME280;75677;52.380;4.876;2024-03-23T09:47:47;100904.59;;;19.62;36.64
85268;BME280;75677;52.380;4.876;2024-03-23T09:50:13;100914.19;;;19.65;36.85
85268;BME280;75677;52.380;4.876;2024-03-23T09:52:39;100894.69;;;19.57;36.80
85268;BME280;75677;52.380;4.876;2024-03-23T09:55:08;100904.53;;;19.66;36.89
85268;BME280;75677;52.380;4.876;2024-03-23T09:57:33;100912.53;;;19.67;37.20
85268;BME280;75677;52.380;4.876;2024-03-23T09:59:59;100906.06;;;19.70;36.94
85268;BME280;75677;52.380;4.876;2024-03-23T10:02:24;100895.19;;;19.72;37.10
85268;BME280;75677;52.380;4.876;2024-03-23T10:04:50;100898.00;;;19.72;36.92
85268;BME280;75677;52.380;4.876;2024-03-23T10:07:18;100904.78;;;19.75;36.94
85268;BME280;75677;52.380;4.876;2024-03-23T10:09:45;100897.19;;;19.75;36.78
85268;BME280;75677;52.380;4.876;2024-03-23T10:12:12;100901.53;;;19.76;36.37
85268;BME280;75677;52.380;4.876;2024-03-23T10:14:39;100888.31;;;19.77;37.03
85268;BME280;75677;52.380;4.876;2024-03-23T10:17:21;100902.34;;;19.77;36.32
85268;BME280;75677;52.380;4.876;2024-03-23T10:19:51;100889.97;;;19.74;36.63
85268;BME280;75677;52.380;4.876;2024-03-23T10:22:19;100890.78;;;19.75;36.64
85268;BME280;75677;52.380;4.876;2024-03-23T10:24:45;100907.53;;;19.78;36.73
85268;BME280;75677;52.380;4.876;2024-03-23T10:27:15;100922.41;;;19.75;36.23
85268;BME280;75677;52.380;4.876;2024-03-23T10:29:43;100915.94;;;19.78;36.91
85268;BME280;75677;52.380;4.876;2024-03-23T10:32:13;100909.91;;;19.80;37.03
85268;BME280;75677;52.380;4.876;2024-03-23T10:34:39;100907.81;;;19.84;36.56
85268;BME280;75677;52.380;4.876;2024-03-23T10:37:05;100918.19;;;19.87;36.43
85268;BME280;75677;52.380;4.876;2024-03-23T10:39:40;100908.19;;;19.86;36.92
85268;BME280;75677;52.380;4.876;2024-03-23T10:42:08;100911.78;;;19.86;36.63
85268;BME280;75677;52.380;4.876;2024-03-23T10:44:35;100910.63;;;19.84;36.73
85268;BME280;75677;52.380;4.876;2024-03-23T10:47:02;100901.00;;;19.85;36.82
85268;BME280;75677;52.380;4.876;2024-03-23T10:49:29;100900.56;;;19.86;36.86
85268;BME280;75677;52.380;4.876;2024-03-23T10:52:03;100897.34;;;19.88;36.66
85268;BME280;75677;52.380;4.876;2024-03-23T10:54:30;100896.53;;;19.87;36.17
85268;BME280;75677;52.380;4.876;2024-03-23T10:57:06;100896.16;;;19.85;36.05
85268;BME280;75677;52.380;4.876;2024-03-23T10:59:34;100898.19;;;19.85;36.08
85268;BME280;75677;52.380;4.876;2024-03-23T11:02:01;100885.09;;;19.78;36.23
85268;BME280;75677;52.380;4.876;2024-03-23T11:04:35;100889.03;;;19.81;35.99
85268;BME280;75677;52.380;4.876;2024-03-23T11:07:02;100883.84;;;19.79;35.94
85268;BME280;75677;52.380;4.876;2024-03-23T11:09:40;100895.50;;;19.78;35.85
85268;BME280;75677;52.380;4.876;2024-03-23T11:14:48;100899.13;;;19.78;35.63
85268;BME280;75677;52.380;4.876;2024-03-23T11:17:18;100894.72;;;19.77;35.52
85268;BME280;75677;52.380;4.876;2024-03-23T11:19:43;100893.94;;;19.77;35.73
85268;BME280;75677;52.380;4.876;2024-03-23T11:22:09;100886.31;;;19.77;35.54
85268;BME280;75677;52.380;4.876;2024-03-23T11:24:34;100879.53;;;19.75;35.08
85268;BME280;75677;52.380;4.876;2024-03-23T11:27:00;100885.16;;;19.75;34.92
85268;BME280;75677;52.380;4.876;2024-03-23T11:29:29;100892.78;;;19.74;35.26
85268;BME280;75677;52.380;4.876;2024-03-23T11:31:55;100872.00;;;19.72;35.34
85268;BME280;75677;52.380;4.876;2024-03-23T11:34:20;100883.56;;;19.74;35.09
85268;BME280;75677;52.380;4.876;2024-03-23T11:36:46;100881.16;;;19.72;34.69
85268;BME280;75677;52.380;4.876;2024-03-23T11:39:15;100886.78;;;19.72;35.08
85268;BME280;75677;52.380;4.876;2024-03-23T11:41:51;100879.16;;;19.73;34.96
85268;BME280;75677;52.380;4.876;2024-03-23T11:44:22;100877.66;;;19.68;34.80
85268;BME280;75677;52.380;4.876;2024-03-23T11:46:47;100874.00;;;19.71;34.89
85268;BME280;75677;52.380;4.876;2024-03-23T11:49:23;100899.25;;;19.71;34.68
85268;BME280;75677;52.380;4.876;2024-03-23T11:51:49;100892.47;;;19.69;35.04
85268;BME280;75677;52.380;4.876;2024-03-23T11:54:15;100893.25;;;19.69;34.72
85268;BME280;75677;52.380;4.876;2024-03-23T11:56:40;100876.53;;;19.62;35.05
85268;BME280;75677;52.380;4.876;2024-03-23T11:59:08;100888.09;;;19.68;35.12
85268;BME280;75677;52.380;4.876;2024-03-23T12:01:34;100916.56;;;19.66;34.94
85268;BME280;75677;52.380;4.876;2024-03-23T12:03:59;100900.16;;;19.65;35.51
85268;BME280;75677;52.380;4.876;2024-03-23T12:06:24;100896.56;;;19.64;35.21
85268;BME280;75677;52.380;4.876;2024-03-23T12:08:50;100889.34;;;19.63;35.23
85268;BME280;75677;52.380;4.876;2024-03-23T12:11:17;100889.00;;;19.61;35.37
85268;BME280;75677;52.380;4.876;2024-03-23T12:13:45;100879.84;;;19.57;35.10
85268;BME280;75677;52.380;4.876;2024-03-23T12:16:19;100881.88;;;19.56;34.96
85268;BME280;75677;52.380;4.876;2024-03-23T12:18:48;100879.56;;;19.51;35.07
85268;BME280;75677;52.380;4.876;2024-03-23T12:21:14;100865.66;;;19.44;35.06
85268;BME280;75677;52.380;4.876;2024-03-23T12:23:40;100863.16;;;19.50;35.64
85268;BME280;75677;52.380;4.876;2024-03-23T12:26:06;100859.19;;;19.47;35.38
85268;BME280;75677;52.380;4.876;2024-03-23T12:28:32;100848.84;;;19.44;35.57
85268;BME280;75677;52.380;4.876;2024-03-23T12:30:57;100845.25;;;19.44;35.91
85268;BME280;75677;52.380;4.876;2024-03-23T12:33:23;100848.84;;;19.44;36.35
85268;BME280;75677;52.380;4.876;2024-03-23T12:35:50;100852.00;;;19.46;36.74
85268;BME280;75677;52.380;4.876;2024-03-23T12:38:15;100847.19;;;19.47;36.50
85268;BME280;75677;52.380;4.876;2024-03-23T12:40:41;100848.34;;;19.49;36.40
85268;BME280;75677;52.380;4.876;2024-03-23T12:43:07;100840.72;;;19.50;36.36
85268;BME280;75677;52.380;4.876;2024-03-23T12:45:33;100852.75;;;19.50;36.50
85268;BME280;75677;52.380;4.876;2024-03-23T12:47:58;100843.13;;;19.51;36.35
85268;BME280;75677;52.380;4.876;2024-03-23T12:50:24;100838.72;;;19.50;36.61
85268;BME280;75677;52.380;4.876;2024-03-23T12:52:49;100835.13;;;19.50;36.37
85268;BME280;75677;52.380;4.876;2024-03-23T12:55:14;100841.59;;;19.47;36.12
85268;BME280;75677;52.380;4.876;2024-03-23T12:57:40;100863.59;;;19.48;36.47
85268;BME280;75677;52.380;4.876;2024-03-23T13:00:08;100860.78;;;19.48;35.94
85268;BME280;75677;52.380;4.876;2024-03-23T13:02:37;100854.44;;;19.44;36.13
85268;BME280;75677;52.380;4.876;2024-03-23T13:05:02;100841.66;;;19.43;35.98
85268;BME280;75677;52.380;4.876;2024-03-23T13:07:28;100851.25;;;19.42;36.20
85268;BME280;75677;52.380;4.876;2024-03-23T13:09:53;100840.84;;;19.43;36.23
85268;BME280;75677;52.380;4.876;2024-03-23T13:12:19;100845.66;;;19.42;35.84
85268;BME280;75677;52.380;4.876;2024-03-23T13:14:46;100834.09;;;19.40;36.18
85268;BME280;75677;52.380;4.876;2024-03-23T13:17:11;100806.72;;;19.25;35.95
85268;BME280;75677;52.380;4.876;2024-03-23T13:19:37;100808.22;;;19.29;35.98
85268;BME280;75677;52.380;4.876;2024-03-23T13:22:03;100815.28;;;19.37;36.31
85268;BME280;75677;52.380;4.876;2024-03-23T13:24:28;100820.56;;;19.35;36.19
85268;BME280;75677;52.380;4.876;2024-03-23T13:26:55;100811.34;;;19.35;36.46
85268;BME280;75677;52.380;4.876;2024-03-23T13:29:21;100814.22;;;19.31;36.06
85268;BME280;75677;52.380;4.876;2024-03-23T13:31:47;100802.56;;;19.33;36.44
85268;BME280;75677;52.380;4.876;2024-03-23T13:34:13;100807.38;;;19.32;36.44
85268;BME280;75677;52.380;4.876;2024-03-23T13:36:42;100807.38;;;19.32;36.63
85268;BME280;75677;52.380;4.876;2024-03-23T13:39:08;100802.50;;;19.36;36.57
85268;BME280;75677;52.380;4.876;2024-03-23T13:41:41;100801.63;;;19.39;36.23
85268;BME280;75677;52.380;4.876;2024-03-23T13:44:07;100804.06;;;19.41;36.43